sensor_id;sensor_type;location;lat;lon;timestamp;P1;durP1;ratioP1;P2;durP2;ratioP2
1358;SDS011;673;48.098;14.422;2023-04-01T00:01:42;0.80;;;0.40;;
1358;SDS011;673;48.098;14.422;2023-04-01T00:04:09;0.70;;;0.40;;
1358;SDS011;673;48.098;14.422;2023-04-01T00:06:36;2.50;;;0.40;;
1358;SDS011;673;48.098;14.422;2023-04-01T00:09:03;2.00;;;0.30;;
1358;SDS011;673;48.098;14.422;2023-04-01T00:11:30;2.10;;;0.50;;
1358;SDS011;673;48.098;14.422;2023-04-01T00:13:57;1.00;;;0.50;;
1358;SDS011;673;48.098;14.422;2023-04-01T00:16:25;0.90;;;0.50;;
1358;SDS011;673;48.098;14.422;2023-04-01T00:18:52;0.93;;;0.40;;
1358;SDS011;673;48.098;14.422;2023-04-01T00:21:20;3.33;;;0.50;;
1358;SDS011;673;48.098;14.422;2023-04-01T00:23:47;2.10;;;0.40;;
1358;SDS011;673;48.098;14.422;2023-04-01T00:26:14;1.40;;;0.40;;
1358;SDS011;673;48.098;14.422;2023-04-01T00:28:44;1.20;;;0.30;;
1358;SDS011;673;48.098;14.422;2023-04-01T00:31:11;0.93;;;0.30;;
1358;SDS011;673;48.098;14.422;2023-04-01T00:33:40;2.20;;;0.40;;
1358;SDS011;673;48.098;14.422;2023-04-01T00:36:08;2.90;;;0.63;;
1358;SDS011;673;48.098;14.422;2023-04-01T00:38:36;2.53;;;0.40;;
1358;SDS011;673;48.098;14.422;2023-04-01T00:41:04;2.60;;;0.40;;
1358;SDS011;673;48.098;14.422;2023-04-01T00:43:31;1.23;;;0.50;;
1358;SDS011;673;48.098;14.422;2023-04-01T00:45:59;0.77;;;0.30;;
1358;SDS011;673;48.098;14.422;2023-04-01T00:48:27;0.60;;;0.30;;
1358;SDS011;673;48.098;14.422;2023-04-01T00:50:59;1.07;;;0.30;;
1358;SDS011;673;48.098;14.422;2023-04-01T00:53:29;4.83;;;0.47;;
1358;SDS011;673;48.098;14.422;2023-04-01T00:55:59;1.07;;;0.40;;
1358;SDS011;673;48.098;14.422;2023-04-01T00:58:31;1.33;;;0.43;;
1358;SDS011;673;48.098;14.422;2023-04-01T01:01:01;4.60;;;0.60;;
1358;SDS011;673;48.098;14.422;2023-04-01T01:03:28;1.00;;;0.40;;
1358;SDS011;673;48.098;14.422;2023-04-01T01:06:06;5.67;;;0.83;;
1358;SDS011;673;48.098;14.422;2023-04-01T01:08:42;2.80;;;0.60;;
1358;SDS011;673;48.098;14.422;2023-04-01T01:11:25;0.40;;;0.30;;
1358;SDS011;673;48.098;14.422;2023-04-01T01:14:02;1.57;;;0.40;;
1358;SDS011;673;48.098;14.422;2023-04-01T01:16:38;0.90;;;0.40;;
1358;SDS011;673;48.098;14.422;2023-04-01T01:19:11;1.07;;;0.30;;
1358;SDS011;673;48.098;14.422;2023-04-01T01:21:58;0.40;;;0.30;;
1358;SDS011;673;48.098;14.422;2023-04-01T01:25:00;0.70;;;0.30;;
1358;SDS011;673;48.098;14.422;2023-04-01T01:27:42;0.60;;;0.40;;
1358;SDS011;673;48.098;14.422;2023-04-01T01:30:20;1.03;;;0.40;;
1358;SDS011;673;48.098;14.422;2023-04-01T01:33:06;1.07;;;0.37;;
1358;SDS011;673;48.098;14.422;2023-04-01T01:35:58;0.77;;;0.30;;
1358;SDS011;673;48.098;14.422;2023-04-01T01:38:28;0.50;;;0.30;;
1358;SDS011;673;48.098;14.422;2023-04-01T01:40:57;0.57;;;0.40;;
1358;SDS011;673;48.098;14.422;2023-04-01T01:43:28;3.30;;;0.40;;
1358;SDS011;673;48.098;14.422;2023-04-01T01:45:58;0.40;;;0.30;;
1358;SDS011;673;48.098;14.422;2023-04-01T01:48:29;1.77;;;0.40;;
1358;SDS011;673;48.098;14.422;2023-04-01T01:50:59;1.40;;;0.30;;
1358;SDS011;673;48.098;14.422;2023-04-01T01:53:27;1.63;;;0.30;;
1358;SDS011;673;48.098;14.422;2023-04-01T01:55:54;0.70;;;0.50;;
1358;SDS011;673;48.098;14.422;2023-04-01T01:58:22;0.50;;;0.30;;
1358;SDS011;673;48.098;14.422;2023-04-01T02:00:54;1.40;;;0.37;;
1358;SDS011;673;48.098;14.422;2023-04-01T02:03:23;0.80;;;0.33;;
1358;SDS011;673;48.098;14.422;2023-04-01T02:05:53;2.77;;;0.30;;
1358;SDS011;673;48.098;14.422;2023-04-01T02:08:25;0.90;;;0.30;;
1358;SDS011;673;48.098;14.422;2023-04-01T02:10:55;0.43;;;0.23;;
1358;SDS011;673;48.098;14.422;2023-04-01T02:13:27;0.50;;;0.30;;
1358;SDS011;673;48.098;14.422;2023-04-01T02:15:59;2.83;;;0.30;;
1358;SDS011;673;48.098;14.422;2023-04-01T02:18:29;0.40;;;0.30;;
1358;SDS011;673;48.098;14.422;2023-04-01T02:20:59;0.60;;;0.40;;
1358;SDS011;673;48.098;14.422;2023-04-01T02:23:31;0.40;;;0.30;;
1358;SDS011;673;48.098;14.422;2023-04-01T02:25:59;0.73;;;0.40;;
1358;SDS011;673;48.098;14.422;2023-04-01T02:28:27;0.70;;;0.30;;
1358;SDS011;673;48.098;14.422;2023-04-01T02:30:56;0.47;;;0.30;;
1358;SDS011;673;48.098;14.422;2023-04-01T02:33:27;2.60;;;0.30;;
1358;SDS011;673;48.098;14.422;2023-04-01T02:35:55;0.50;;;0.30;;
1358;SDS011;673;48.098;14.422;2023-04-01T02:38:23;0.93;;;0.37;;
1358;SDS011;673;48.098;14.422;2023-04-01T02:40:56;0.40;;;0.20;;
1358;SDS011;673;48.098;14.422;2023-04-01T02:43:24;0.60;;;0.20;;
1358;SDS011;673;48.098;14.422;2023-04-01T02:45:51;0.83;;;0.30;;
1358;SDS011;673;48.098;14.422;2023-04-01T02:48:18;1.83;;;0.30;;
1358;SDS011;673;48.098;14.422;2023-04-01T02:50:46;3.50;;;0.50;;
1358;SDS011;673;48.098;14.422;2023-04-01T02:53:13;0.40;;;0.20;;
1358;SDS011;673;48.098;14.422;2023-04-01T02:55:40;1.43;;;0.30;;
1358;SDS011;673;48.098;14.422;2023-04-01T02:58:08;0.40;;;0.20;;
1358;SDS011;673;48.098;14.422;2023-04-01T03:00:35;1.17;;;0.70;;
1358;SDS011;673;48.098;14.422;2023-04-01T03:03:02;0.83;;;0.30;;
1358;SDS011;673;48.098;14.422;2023-04-01T03:05:29;0.30;;;0.20;;
1358;SDS011;673;48.098;14.422;2023-04-01T03:07:56;1.13;;;0.30;;
1358;SDS011;673;48.098;14.422;2023-04-01T03:10:23;1.93;;;0.33;;
1358;SDS011;673;48.098;14.422;2023-04-01T03:12:50;1.63;;;0.40;;
1358;SDS011;673;48.098;14.422;2023-04-01T03:15:18;0.40;;;0.27;;
1358;SDS011;673;48.098;14.422;2023-04-01T03:17:45;1.17;;;0.30;;
1358;SDS011;673;48.098;14.422;2023-04-01T03:20:13;1.17;;;0.37;;
1358;SDS011;673;48.098;14.422;2023-04-01T03:22:40;1.10;;;0.30;;
1358;SDS011;673;48.098;14.422;2023-04-01T03:25:07;0.40;;;0.20;;
1358;SDS011;673;48.098;14.422;2023-04-01T03:27:36;1.77;;;0.30;;
1358;SDS011;673;48.098;14.422;2023-04-01T03:30:04;0.97;;;0.40;;
1358;SDS011;673;48.098;14.422;2023-04-01T03:32:33;0.60;;;0.20;;
1358;SDS011;673;48.098;14.422;2023-04-01T03:35:00;0.80;;;0.30;;
1358;SDS011;673;48.098;14.422;2023-04-01T03:37:27;0.87;;;0.20;;
1358;SDS011;673;48.098;14.422;2023-04-01T03:39:54;3.20;;;0.20;;
1358;SDS011;673;48.098;14.422;2023-04-01T03:42:21;1.07;;;0.27;;
1358;SDS011;673;48.098;14.422;2023-04-01T03:44:48;0.40;;;0.20;;
1358;SDS011;673;48.098;14.422;2023-04-01T03:47:15;0.40;;;0.20;;
1358;SDS011;673;48.098;14.422;2023-04-01T03:49:44;1.50;;;0.30;;
1358;SDS011;673;48.098;14.422;2023-04-01T03:52:11;0.60;;;0.20;;
1358;SDS011;673;48.098;14.422;2023-04-01T03:54:38;0.97;;;0.30;;
1358;SDS011;673;48.098;14.422;2023-04-01T03:57:05;0.97;;;0.20;;
1358;SDS011;673;48.098;14.422;2023-04-01T03:59:32;0.50;;;0.30;;
1358;SDS011;673;48.098;14.422;2023-04-01T04:02:00;0.70;;;0.30;;
1358;SDS011;673;48.098;14.422;2023-04-01T04:04:27;0.60;;;0.30;;
1358;SDS011;673;48.098;14.422;2023-04-01T04:06:56;0.60;;;0.20;;
1358;SDS011;673;48.098;14.422;2023-04-01T04:09:23;0.40;;;0.20;;
1358;SDS011;673;48.098;14.422;2023-04-01T04:11:50;0.40;;;0.23;;
1358;SDS011;673;48.098;14.422;2023-04-01T04:14:17;1.10;;;0.20;;
1358;SDS011;673;48.098;14.422;2023-04-01T04:16:44;0.70;;;0.20;;
1358;SDS011;673;48.098;14.422;2023-04-01T04:19:11;0.40;;;0.20;;
1358;SDS011;673;48.098;14.422;2023-04-01T04:21:39;1.73;;;0.23;;
1358;SDS011;673;48.098;14.422;2023-04-01T04:24:07;1.60;;;0.30;;
1358;SDS011;673;48.098;14.422;2023-04-01T04:26:35;1.23;;;0.20;;
1358;SDS011;673;48.098;14.422;2023-04-01T04:29:02;1.97;;;0.93;;
1358;SDS011;673;48.098;14.422;2023-04-01T04:31:29;0.43;;;0.40;;
1358;SDS011;673;48.098;14.422;2023-04-01T04:33:58;0.87;;;0.53;;
1358;SDS011;673;48.098;14.422;2023-04-01T04:36:25;1.33;;;0.30;;
1358;SDS011;673;48.098;14.422;2023-04-01T04:38:52;0.40;;;0.20;;
1358;SDS011;673;48.098;14.422;2023-04-01T04:41:21;0.40;;;0.20;;
1358;SDS011;673;48.098;14.422;2023-04-01T04:43:49;2.73;;;0.40;;
1358;SDS011;673;48.098;14.422;2023-04-01T04:46:17;0.93;;;0.30;;
1358;SDS011;673;48.098;14.422;2023-04-01T04:48:44;0.63;;;0.40;;
1358;SDS011;673;48.098;14.422;2023-04-01T04:51:12;0.30;;;0.20;;
1358;SDS011;673;48.098;14.422;2023-04-01T04:53:40;0.40;;;0.30;;
1358;SDS011;673;48.098;14.422;2023-04-01T04:56:07;0.33;;;0.20;;
1358;SDS011;673;48.098;14.422;2023-04-01T04:58:36;0.40;;;0.30;;
1358;SDS011;673;48.098;14.422;2023-04-01T05:01:08;0.40;;;0.30;;
1358;SDS011;673;48.098;14.422;2023-04-01T05:03:35;0.70;;;0.40;;
1358;SDS011;673;48.098;14.422;2023-04-01T05:06:03;0.70;;;0.40;;
1358;SDS011;673;48.098;14.422;2023-04-01T05:08:31;0.60;;;0.60;;
1358;SDS011;673;48.098;14.422;2023-04-01T05:10:59;1.00;;;0.60;;
1358;SDS011;673;48.098;14.422;2023-04-01T05:13:26;2.20;;;0.53;;
1358;SDS011;673;48.098;14.422;2023-04-01T05:15:54;1.80;;;1.43;;
1358;SDS011;673;48.098;14.422;2023-04-01T05:18:21;1.07;;;1.00;;
1358;SDS011;673;48.098;14.422;2023-04-01T05:20:49;1.03;;;0.40;;
1358;SDS011;673;48.098;14.422;2023-04-01T05:23:17;0.60;;;0.40;;
1358;SDS011;673;48.098;14.422;2023-04-01T05:25:46;0.50;;;0.50;;
1358;SDS011;673;48.098;14.422;2023-04-01T05:28:13;0.77;;;0.37;;
1358;SDS011;673;48.098;14.422;2023-04-01T05:30:40;2.10;;;1.47;;
1358;SDS011;673;48.098;14.422;2023-04-01T05:33:09;5.73;;;4.33;;
1358;SDS011;673;48.098;14.422;2023-04-01T05:35:37;4.97;;;4.47;;
1358;SDS011;673;48.098;14.422;2023-04-01T05:38:04;2.33;;;2.00;;
1358;SDS011;673;48.098;14.422;2023-04-01T05:40:31;17.67;;;11.17;;
1358;SDS011;673;48.098;14.422;2023-04-01T05:42:59;26.30;;;16.07;;
1358;SDS011;673;48.098;14.422;2023-04-01T05:45:26;17.60;;;8.37;;
1358;SDS011;673;48.098;14.422;2023-04-01T05:47:54;13.97;;;5.60;;
1358;SDS011;673;48.098;14.422;2023-04-01T05:50:22;5.60;;;2.70;;
1358;SDS011;673;48.098;14.422;2023-04-01T05:52:49;3.93;;;1.77;;
1358;SDS011;673;48.098;14.422;2023-04-01T05:55:16;3.97;;;1.70;;
1358;SDS011;673;48.098;14.422;2023-04-01T05:57:44;1.30;;;0.60;;
1358;SDS011;673;48.098;14.422;2023-04-01T06:00:13;0.90;;;0.43;;
1358;SDS011;673;48.098;14.422;2023-04-01T06:02:41;2.17;;;0.60;;
1358;SDS011;673;48.098;14.422;2023-04-01T06:05:13;1.57;;;0.40;;
1358;SDS011;673;48.098;14.422;2023-04-01T06:07:44;0.50;;;0.40;;
1358;SDS011;673;48.098;14.422;2023-04-01T06:10:15;4.73;;;0.30;;
1358;SDS011;673;48.098;14.422;2023-04-01T06:12:49;0.40;;;0.30;;
1358;SDS011;673;48.098;14.422;2023-04-01T06:15:24;0.40;;;0.20;;
1358;SDS011;673;48.098;14.422;2023-04-01T06:18:02;0.50;;;0.23;;
1358;SDS011;673;48.098;14.422;2023-04-01T06:20:50;0.60;;;0.30;;
1358;SDS011;673;48.098;14.422;2023-04-01T06:23:34;0.50;;;0.30;;
1358;SDS011;673;48.098;14.422;2023-04-01T06:26:16;1.00;;;0.60;;
1358;SDS011;673;48.098;14.422;2023-04-01T06:28:59;1.20;;;0.40;;
1358;SDS011;673;48.098;14.422;2023-04-01T06:31:50;0.40;;;0.20;;
1358;SDS011;673;48.098;14.422;2023-04-01T06:34:47;1.13;;;0.20;;
1358;SDS011;673;48.098;14.422;2023-04-01T06:37:34;2.00;;;0.30;;
1358;SDS011;673;48.098;14.422;2023-04-01T06:40:43;0.40;;;0.20;;
1358;SDS011;673;48.098;14.422;2023-04-01T06:43:33;2.00;;;0.20;;
1358;SDS011;673;48.098;14.422;2023-04-01T06:46:10;2.60;;;0.50;;
1358;SDS011;673;48.098;14.422;2023-04-01T06:48:46;0.50;;;0.20;;
1358;SDS011;673;48.098;14.422;2023-04-01T06:51:30;2.20;;;0.30;;
1358;SDS011;673;48.098;14.422;2023-04-01T06:54:06;0.40;;;0.30;;
1358;SDS011;673;48.098;14.422;2023-04-01T06:56:40;0.40;;;0.20;;
1358;SDS011;673;48.098;14.422;2023-04-01T06:59:12;1.17;;;0.33;;
1358;SDS011;673;48.098;14.422;2023-04-01T07:01:44;0.40;;;0.30;;
1358;SDS011;673;48.098;14.422;2023-04-01T07:04:16;0.50;;;0.30;;
1358;SDS011;673;48.098;14.422;2023-04-01T07:06:47;1.13;;;0.80;;
1358;SDS011;673;48.098;14.422;2023-04-01T07:09:19;0.77;;;0.40;;
1358;SDS011;673;48.098;14.422;2023-04-01T07:11:49;0.80;;;0.30;;
1358;SDS011;673;48.098;14.422;2023-04-01T07:14:20;0.50;;;0.30;;
1358;SDS011;673;48.098;14.422;2023-04-01T07:16:53;1.43;;;0.50;;
1358;SDS011;673;48.098;14.422;2023-04-01T07:19:25;1.07;;;0.30;;
1358;SDS011;673;48.098;14.422;2023-04-01T07:21:56;0.50;;;0.30;;
1358;SDS011;673;48.098;14.422;2023-04-01T07:24:29;0.40;;;0.30;;
1358;SDS011;673;48.098;14.422;2023-04-01T07:27:01;0.40;;;0.30;;
1358;SDS011;673;48.098;14.422;2023-04-01T07:29:28;2.10;;;0.40;;
1358;SDS011;673;48.098;14.422;2023-04-01T07:32:02;1.80;;;0.50;;
1358;SDS011;673;48.098;14.422;2023-04-01T07:34:50;0.70;;;0.33;;
1358;SDS011;673;48.098;14.422;2023-04-01T07:37:28;0.40;;;0.30;;
1358;SDS011;673;48.098;14.422;2023-04-01T07:40:04;0.40;;;0.20;;
1358;SDS011;673;48.098;14.422;2023-04-01T07:42:47;0.60;;;0.30;;
1358;SDS011;673;48.098;14.422;2023-04-01T07:45:29;0.87;;;0.30;;
1358;SDS011;673;48.098;14.422;2023-04-01T07:48:03;0.50;;;0.30;;
1358;SDS011;673;48.098;14.422;2023-04-01T07:50:46;2.07;;;0.30;;
1358;SDS011;673;48.098;14.422;2023-04-01T07:53:21;0.50;;;0.20;;
1358;SDS011;673;48.098;14.422;2023-04-01T07:55:55;0.40;;;0.30;;
1358;SDS011;673;48.098;14.422;2023-04-01T07:58:33;0.70;;;0.30;;
1358;SDS011;673;48.098;14.422;2023-04-01T08:01:09;1.73;;;0.30;;
1358;SDS011;673;48.098;14.422;2023-04-01T08:03:46;0.40;;;0.20;;
1358;SDS011;673;48.098;14.422;2023-04-01T08:06:24;1.80;;;0.20;;
1358;SDS011;673;48.098;14.422;2023-04-01T08:08:59;0.50;;;0.20;;
1358;SDS011;673;48.098;14.422;2023-04-01T08:11:39;0.50;;;0.23;;
1358;SDS011;673;48.098;14.422;2023-04-01T08:14:17;0.50;;;0.20;;
1358;SDS011;673;48.098;14.422;2023-04-01T08:16:54;1.00;;;0.30;;
1358;SDS011;673;48.098;14.422;2023-04-01T08:19:27;0.43;;;0.23;;
1358;SDS011;673;48.098;14.422;2023-04-01T08:22:02;0.40;;;0.20;;
1358;SDS011;673;48.098;14.422;2023-04-01T08:24:36;0.40;;;0.30;;
1358;SDS011;673;48.098;14.422;2023-04-01T08:27:09;0.60;;;0.30;;
1358;SDS011;673;48.098;14.422;2023-04-01T08:29:46;3.13;;;0.43;;
1358;SDS011;673;48.098;14.422;2023-04-01T08:32:17;1.70;;;0.20;;
1358;SDS011;673;48.098;14.422;2023-04-01T08:34:50;3.17;;;0.30;;
1358;SDS011;673;48.098;14.422;2023-04-01T08:37:25;0.30;;;0.20;;
1358;SDS011;673;48.098;14.422;2023-04-01T08:39:58;0.50;;;0.30;;
1358;SDS011;673;48.098;14.422;2023-04-01T08:42:40;0.80;;;0.30;;
1358;SDS011;673;48.098;14.422;2023-04-01T08:45:26;0.90;;;0.70;;
1358;SDS011;673;48.098;14.422;2023-04-01T08:51:11;0.40;;;0.20;;
1358;SDS011;673;48.098;14.422;2023-04-01T08:53:57;0.50;;;0.30;;
1358;SDS011;673;48.098;14.422;2023-04-01T08:56:47;0.40;;;0.20;;
1358;SDS011;673;48.098;14.422;2023-04-01T08:59:26;0.50;;;0.30;;
1358;SDS011;673;48.098;14.422;2023-04-01T09:05:02;1.87;;;0.93;;
1358;SDS011;673;48.098;14.422;2023-04-01T09:07:53;0.30;;;0.20;;
1358;SDS011;673;48.098;14.422;2023-04-01T09:10:39;0.97;;;0.30;;
1358;SDS011;673;48.098;14.422;2023-04-01T09:16:27;0.40;;;0.23;;
1358;SDS011;673;48.098;14.422;2023-04-01T09:19:09;0.40;;;0.20;;
1358;SDS011;673;48.098;14.422;2023-04-01T09:21:57;0.40;;;0.20;;
1358;SDS011;673;48.098;14.422;2023-04-01T09:27:49;0.70;;;0.30;;
1358;SDS011;673;48.098;14.422;2023-04-01T09:36:44;0.67;;;0.20;;
1358;SDS011;673;48.098;14.422;2023-04-01T09:39:18;0.40;;;0.20;;
1358;SDS011;673;48.098;14.422;2023-04-01T09:42:01;1.70;;;0.30;;
1358;SDS011;673;48.098;14.422;2023-04-01T09:44:40;0.40;;;0.27;;
1358;SDS011;673;48.098;14.422;2023-04-01T09:47:19;0.57;;;0.30;;
1358;SDS011;673;48.098;14.422;2023-04-01T09:50:03;0.40;;;0.20;;
1358;SDS011;673;48.098;14.422;2023-04-01T09:52:52;2.00;;;0.70;;
1358;SDS011;673;48.098;14.422;2023-04-01T09:55:38;0.40;;;0.20;;
1358;SDS011;673;48.098;14.422;2023-04-01T09:58:36;0.40;;;0.30;;
1358;SDS011;673;48.098;14.422;2023-04-01T10:01:57;1.27;;;0.30;;
1358;SDS011;673;48.098;14.422;2023-04-01T10:04:55;0.73;;;0.30;;
1358;SDS011;673;48.098;14.422;2023-04-01T10:16:46;0.90;;;0.30;;
1358;SDS011;673;48.098;14.422;2023-04-01T10:19:53;0.73;;;0.30;;
1358;SDS011;673;48.098;14.422;2023-04-01T10:31:32;0.40;;;0.30;;
1358;SDS011;673;48.098;14.422;2023-04-01T10:34:28;3.30;;;0.60;;
1358;SDS011;673;48.098;14.422;2023-04-01T10:52:24;1.07;;;0.30;;
1358;SDS011;673;48.098;14.422;2023-04-01T10:55:28;2.53;;;0.30;;
1358;SDS011;673;48.098;14.422;2023-04-01T10:58:12;3.23;;;0.20;;
1358;SDS011;673;48.098;14.422;2023-04-01T11:08:01;1.20;;;0.40;;
1358;SDS011;673;48.098;14.422;2023-04-01T11:11:01;0.50;;;0.30;;
1358;SDS011;673;48.098;14.422;2023-04-01T11:20:14;0.70;;;0.27;;
1358;SDS011;673;48.098;14.422;2023-04-01T11:26:32;1.53;;;0.40;;
1358;SDS011;673;48.098;14.422;2023-04-01T11:29:12;0.40;;;0.30;;
1358;SDS011;673;48.098;14.422;2023-04-01T11:31:54;0.60;;;0.30;;
1358;SDS011;673;48.098;14.422;2023-04-01T11:34:33;0.67;;;0.30;;
1358;SDS011;673;48.098;14.422;2023-04-01T11:37:14;0.50;;;0.30;;
1358;SDS011;673;48.098;14.422;2023-04-01T11:39:58;1.47;;;0.30;;
1358;SDS011;673;48.098;14.422;2023-04-01T11:42:32;1.43;;;0.30;;
1358;SDS011;673;48.098;14.422;2023-04-01T11:45:10;0.87;;;0.30;;
1358;SDS011;673;48.098;14.422;2023-04-01T11:47:50;1.63;;;0.20;;
1358;SDS011;673;48.098;14.422;2023-04-01T11:50:26;0.40;;;0.30;;
1358;SDS011;673;48.098;14.422;2023-04-01T11:53:10;0.40;;;0.27;;
1358;SDS011;673;48.098;14.422;2023-04-01T11:56:02;0.70;;;0.20;;
1358;SDS011;673;48.098;14.422;2023-04-01T12:01:48;0.40;;;0.23;;
1358;SDS011;673;48.098;14.422;2023-04-01T12:04:30;0.50;;;0.20;;
1358;SDS011;673;48.098;14.422;2023-04-01T12:07:25;0.40;;;0.20;;
1358;SDS011;673;48.098;14.422;2023-04-01T12:10:12;1.13;;;0.23;;
1358;SDS011;673;48.098;14.422;2023-04-01T12:12:46;0.60;;;0.23;;
1358;SDS011;673;48.098;14.422;2023-04-01T12:15:23;0.50;;;0.20;;
1358;SDS011;673;48.098;14.422;2023-04-01T12:17:58;0.60;;;0.20;;
1358;SDS011;673;48.098;14.422;2023-04-01T12:20:40;0.40;;;0.20;;
1358;SDS011;673;48.098;14.422;2023-04-01T12:23:18;1.13;;;0.30;;
1358;SDS011;673;48.098;14.422;2023-04-01T12:29:03;0.40;;;0.20;;
1358;SDS011;673;48.098;14.422;2023-04-01T12:31:42;0.40;;;0.20;;
1358;SDS011;673;48.098;14.422;2023-04-01T12:34:31;0.40;;;0.20;;
1358;SDS011;673;48.098;14.422;2023-04-01T12:37:27;0.30;;;0.20;;
1358;SDS011;673;48.098;14.422;2023-04-01T12:40:21;0.60;;;0.30;;
1358;SDS011;673;48.098;14.422;2023-04-01T12:43:09;0.47;;;0.30;;
1358;SDS011;673;48.098;14.422;2023-04-01T12:45:48;0.40;;;0.20;;
1358;SDS011;673;48.098;14.422;2023-04-01T12:51:29;0.40;;;0.20;;
1358;SDS011;673;48.098;14.422;2023-04-01T12:54:18;0.40;;;0.23;;
1358;SDS011;673;48.098;14.422;2023-04-01T12:57:07;0.40;;;0.30;;
1358;SDS011;673;48.098;14.422;2023-04-01T12:59:55;0.87;;;0.20;;
1358;SDS011;673;48.098;14.422;2023-04-01T13:02:40;2.50;;;0.30;;
1358;SDS011;673;48.098;14.422;2023-04-01T13:08:32;0.40;;;0.20;;
1358;SDS011;673;48.098;14.422;2023-04-01T13:11:09;1.13;;;0.20;;
1358;SDS011;673;48.098;14.422;2023-04-01T13:16:50;0.40;;;0.23;;
1358;SDS011;673;48.098;14.422;2023-04-01T13:19:23;0.30;;;0.20;;
1358;SDS011;673;48.098;14.422;2023-04-01T13:21:57;0.40;;;0.20;;
1358;SDS011;673;48.098;14.422;2023-04-01T13:24:36;1.93;;;1.17;;
1358;SDS011;673;48.098;14.422;2023-04-01T13:27:12;0.40;;;0.20;;
1358;SDS011;673;48.098;14.422;2023-04-01T13:29:45;0.50;;;0.30;;
1358;SDS011;673;48.098;14.422;2023-04-01T13:32:25;0.40;;;0.20;;
1358;SDS011;673;48.098;14.422;2023-04-01T13:35:05;0.30;;;0.20;;
1358;SDS011;673;48.098;14.422;2023-04-01T13:37:51;2.40;;;0.30;;
1358;SDS011;673;48.098;14.422;2023-04-01T13:40:26;0.40;;;0.20;;
1358;SDS011;673;48.098;14.422;2023-04-01T13:43:02;0.50;;;0.30;;
1358;SDS011;673;48.098;14.422;2023-04-01T13:45:38;0.53;;;0.20;;
1358;SDS011;673;48.098;14.422;2023-04-01T13:48:28;0.40;;;0.30;;
1358;SDS011;673;48.098;14.422;2023-04-01T13:51:08;0.40;;;0.20;;
1358;SDS011;673;48.098;14.422;2023-04-01T13:54:00;0.40;;;0.20;;
1358;SDS011;673;48.098;14.422;2023-04-01T13:56:41;0.60;;;0.40;;
1358;SDS011;673;48.098;14.422;2023-04-01T13:59:22;0.30;;;0.20;;
1358;SDS011;673;48.098;14.422;2023-04-01T14:05:30;0.60;;;0.40;;
1358;SDS011;673;48.098;14.422;2023-04-01T14:08:08;0.53;;;0.20;;
1358;SDS011;673;48.098;14.422;2023-04-01T14:10:43;0.40;;;0.27;;
1358;SDS011;673;48.098;14.422;2023-04-01T14:13:15;0.90;;;0.30;;
1358;SDS011;673;48.098;14.422;2023-04-01T14:15:52;0.70;;;0.37;;
1358;SDS011;673;48.098;14.422;2023-04-01T14:21:28;1.37;;;0.30;;
1358;SDS011;673;48.098;14.422;2023-04-01T14:27:17;0.40;;;0.30;;
1358;SDS011;673;48.098;14.422;2023-04-01T14:30:13;0.50;;;0.40;;
1358;SDS011;673;48.098;14.422;2023-04-01T14:32:51;3.70;;;0.30;;
1358;SDS011;673;48.098;14.422;2023-04-01T14:35:34;0.40;;;0.20;;
1358;SDS011;673;48.098;14.422;2023-04-01T14:38:17;0.40;;;0.20;;
1358;SDS011;673;48.098;14.422;2023-04-01T14:41:05;0.40;;;0.20;;
1358;SDS011;673;48.098;14.422;2023-04-01T14:49:49;0.40;;;0.30;;
1358;SDS011;673;48.098;14.422;2023-04-01T14:52:22;0.60;;;0.30;;
1358;SDS011;673;48.098;14.422;2023-04-01T14:54:54;0.40;;;0.20;;
1358;SDS011;673;48.098;14.422;2023-04-01T14:57:25;0.40;;;0.20;;
1358;SDS011;673;48.098;14.422;2023-04-01T14:59:54;0.53;;;0.30;;
1358;SDS011;673;48.098;14.422;2023-04-01T15:02:32;0.40;;;0.20;;
1358;SDS011;673;48.098;14.422;2023-04-01T15:05:10;0.57;;;0.27;;
1358;SDS011;673;48.098;14.422;2023-04-01T15:07:47;0.40;;;0.20;;
1358;SDS011;673;48.098;14.422;2023-04-01T15:16:24;0.63;;;0.20;;
1358;SDS011;673;48.098;14.422;2023-04-01T15:19:00;0.60;;;0.30;;
1358;SDS011;673;48.098;14.422;2023-04-01T15:21:40;0.40;;;0.20;;
1358;SDS011;673;48.098;14.422;2023-04-01T15:24:22;0.90;;;0.20;;
1358;SDS011;673;48.098;14.422;2023-04-01T15:26:57;0.40;;;0.20;;
1358;SDS011;673;48.098;14.422;2023-04-01T15:29:50;2.00;;;0.40;;
1358;SDS011;673;48.098;14.422;2023-04-01T15:32:31;0.40;;;0.20;;
1358;SDS011;673;48.098;14.422;2023-04-01T15:35:14;0.60;;;0.30;;
1358;SDS011;673;48.098;14.422;2023-04-01T15:37:54;0.53;;;0.30;;
1358;SDS011;673;48.098;14.422;2023-04-01T15:40:24;0.40;;;0.20;;
1358;SDS011;673;48.098;14.422;2023-04-01T15:42:59;0.30;;;0.20;;
1358;SDS011;673;48.098;14.422;2023-04-01T15:45:40;0.30;;;0.20;;
1358;SDS011;673;48.098;14.422;2023-04-01T15:48:17;0.57;;;0.30;;
1358;SDS011;673;48.098;14.422;2023-04-01T15:51:01;0.80;;;0.20;;
1358;SDS011;673;48.098;14.422;2023-04-01T15:53:37;0.83;;;0.30;;
1358;SDS011;673;48.098;14.422;2023-04-01T15:56:24;0.40;;;0.30;;
1358;SDS011;673;48.098;14.422;2023-04-01T15:59:01;0.40;;;0.20;;
1358;SDS011;673;48.098;14.422;2023-04-01T16:01:43;0.40;;;0.20;;
1358;SDS011;673;48.098;14.422;2023-04-01T16:04:18;0.30;;;0.20;;
1358;SDS011;673;48.098;14.422;2023-04-01T16:07:02;1.37;;;0.23;;
1358;SDS011;673;48.098;14.422;2023-04-01T16:12:37;0.63;;;0.20;;
1358;SDS011;673;48.098;14.422;2023-04-01T16:15:19;0.40;;;0.20;;
1358;SDS011;673;48.098;14.422;2023-04-01T16:18:03;0.30;;;0.20;;
1358;SDS011;673;48.098;14.422;2023-04-01T16:20:49;0.40;;;0.20;;
1358;SDS011;673;48.098;14.422;2023-04-01T16:23:22;1.23;;;0.20;;
1358;SDS011;673;48.098;14.422;2023-04-01T16:25:58;0.40;;;0.20;;
1358;SDS011;673;48.098;14.422;2023-04-01T16:28:32;0.40;;;0.20;;
1358;SDS011;673;48.098;14.422;2023-04-01T16:31:06;0.40;;;0.27;;
1358;SDS011;673;48.098;14.422;2023-04-01T16:33:43;0.40;;;0.20;;
1358;SDS011;673;48.098;14.422;2023-04-01T16:36:20;0.30;;;0.20;;
1358;SDS011;673;48.098;14.422;2023-04-01T16:38:52;0.40;;;0.20;;
1358;SDS011;673;48.098;14.422;2023-04-01T16:41:26;0.37;;;0.20;;
1358;SDS011;673;48.098;14.422;2023-04-01T16:43:59;0.50;;;0.20;;
1358;SDS011;673;48.098;14.422;2023-04-01T16:46:41;0.40;;;0.20;;
1358;SDS011;673;48.098;14.422;2023-04-01T16:49:27;0.30;;;0.20;;
1358;SDS011;673;48.098;14.422;2023-04-01T16:52:03;0.30;;;0.10;;
1358;SDS011;673;48.098;14.422;2023-04-01T16:54:41;0.40;;;0.20;;
1358;SDS011;673;48.098;14.422;2023-04-01T16:57:18;0.40;;;0.20;;
1358;SDS011;673;48.098;14.422;2023-04-01T16:59:53;0.50;;;0.20;;
1358;SDS011;673;48.098;14.422;2023-04-01T17:02:27;1.03;;;0.20;;
1358;SDS011;673;48.098;14.422;2023-04-01T17:05:03;0.50;;;0.20;;
1358;SDS011;673;48.098;14.422;2023-04-01T17:07:38;0.40;;;0.20;;
1358;SDS011;673;48.098;14.422;2023-04-01T17:16:20;0.30;;;0.20;;
1358;SDS011;673;48.098;14.422;2023-04-01T17:19:04;0.30;;;0.20;;
1358;SDS011;673;48.098;14.422;2023-04-01T17:21:49;0.40;;;0.20;;
1358;SDS011;673;48.098;14.422;2023-04-01T17:24:32;0.30;;;0.20;;
1358;SDS011;673;48.098;14.422;2023-04-01T17:27:20;0.50;;;0.20;;
1358;SDS011;673;48.098;14.422;2023-04-01T17:30:11;0.37;;;0.20;;
1358;SDS011;673;48.098;14.422;2023-04-01T17:32:48;0.30;;;0.20;;
1358;SDS011;673;48.098;14.422;2023-04-01T17:35:31;0.30;;;0.20;;
1358;SDS011;673;48.098;14.422;2023-04-01T17:38:07;0.30;;;0.10;;
1358;SDS011;673;48.098;14.422;2023-04-01T17:40:49;0.30;;;0.20;;
1358;SDS011;673;48.098;14.422;2023-04-01T17:43:27;0.40;;;0.30;;
1358;SDS011;673;48.098;14.422;2023-04-01T17:46:05;0.30;;;0.20;;
1358;SDS011;673;48.098;14.422;2023-04-01T17:48:39;0.40;;;0.30;;
1358;SDS011;673;48.098;14.422;2023-04-01T17:51:22;0.50;;;0.30;;
1358;SDS011;673;48.098;14.422;2023-04-01T17:53:56;0.40;;;0.30;;
1358;SDS011;673;48.098;14.422;2023-04-01T17:56:33;0.50;;;0.20;;
1358;SDS011;673;48.098;14.422;2023-04-01T17:59:21;0.40;;;0.20;;
1358;SDS011;673;48.098;14.422;2023-04-01T18:01:55;0.40;;;0.20;;
1358;SDS011;673;48.098;14.422;2023-04-01T18:04:37;1.47;;;0.20;;